createdAt,value
2023-05-14T00:00:06.449Z,4.97
2023-05-14T00:02:34.423Z,4.57
2023-05-14T00:05:00.878Z,4.60
2023-05-14T00:07:31.147Z,5.88
2023-05-14T00:09:58.352Z,5.18
2023-05-14T00:12:26.292Z,5.40
2023-05-14T00:14:54.436Z,5.03
2023-05-14T00:17:22.258Z,5.05
2023-05-14T00:19:48.797Z,4.90
2023-05-14T00:22:15.422Z,5.30
2023-05-14T00:24:43.169Z,4.70
2023-05-14T00:27:10.173Z,5.25
2023-05-14T00:29:36.552Z,5.20
2023-05-14T00:32:04.178Z,5.22
2023-05-14T00:34:30.580Z,5.50
2023-05-14T00:36:57.695Z,5.50
2023-05-14T00:39:24.081Z,5.05
2023-05-14T00:41:51.063Z,5.55
2023-05-14T00:44:17.487Z,5.68
2023-05-14T00:46:44.076Z,4.97
2023-05-14T00:49:11.171Z,4.68
2023-05-14T00:51:38.063Z,5.00
2023-05-14T00:54:05.301Z,5.13
2023-05-14T00:56:31.801Z,4.53
2023-05-14T00:58:58.814Z,4.90
2023-05-14T01:01:28.371Z,5.20
2023-05-14T01:03:57.899Z,4.88
2023-05-14T01:07:10.323Z,4.88
2023-05-14T01:09:45.108Z,4.68
2023-05-14T01:12:14.342Z,5.25
2023-05-14T01:15:01.971Z,5.30
2023-05-14T01:17:32.750Z,4.68
2023-05-14T01:20:00.691Z,4.72
2023-05-14T01:22:27.206Z,4.88
2023-05-14T01:24:54.046Z,4.57
2023-05-14T01:27:42.601Z,4.93
2023-05-14T01:30:23.881Z,5.05
2023-05-14T01:32:56.434Z,4.88
2023-05-14T01:35:27.604Z,5.30
2023-05-14T01:37:57.808Z,5.05
2023-05-14T01:40:25.062Z,4.95
2023-05-14T01:42:53.828Z,4.88
2023-05-14T01:45:21.606Z,4.93
2023-05-14T01:47:48.528Z,5.30
2023-05-14T01:50:15.082Z,5.28
2023-05-14T01:52:42.297Z,5.15
2023-05-14T01:55:09.045Z,5.78
2023-05-14T01:57:36.941Z,5.90
2023-05-14T02:00:04.657Z,5.07
2023-05-14T02:02:32.279Z,5.10
2023-05-14T02:04:58.958Z,5.55
2023-05-14T02:07:25.488Z,5.72
2023-05-14T02:09:52.062Z,5.95
2023-05-14T02:12:18.422Z,4.70
2023-05-14T02:14:44.794Z,5.30
2023-05-14T02:17:11.973Z,6.32
2023-05-14T02:19:38.367Z,5.65
2023-05-14T02:22:05.174Z,5.13
2023-05-14T02:24:31.650Z,5.00
2023-05-14T02:27:01.284Z,5.03
2023-05-14T02:29:27.833Z,5.47
2023-05-14T02:31:54.759Z,5.65
2023-05-14T02:34:21.268Z,6.25
2023-05-14T02:36:47.743Z,5.35
2023-05-14T02:39:14.146Z,5.38
2023-05-14T02:41:40.659Z,6.18
2023-05-14T02:44:07.095Z,5.63
2023-05-14T02:46:33.856Z,5.28
2023-05-14T02:49:00.425Z,6.13
2023-05-14T02:51:27.187Z,5.50
2023-05-14T02:53:53.878Z,5.38
2023-05-14T02:56:21.147Z,5.25
2023-05-14T02:58:47.814Z,5.53
2023-05-14T03:01:14.537Z,5.43
2023-05-14T03:03:41.295Z,5.03
2023-05-14T03:06:08.199Z,5.00
2023-05-14T03:08:34.590Z,5.10
2023-05-14T03:11:01.351Z,5.28
2023-05-14T03:13:27.873Z,5.50
2023-05-14T03:15:56.994Z,5.47
2023-05-14T03:18:23.528Z,5.50
2023-05-14T03:20:49.884Z,5.35
2023-05-14T03:23:16.805Z,5.25
2023-05-14T03:25:43.363Z,5.25
2023-05-14T03:28:10.412Z,5.30
2023-05-14T03:30:37.259Z,5.60
2023-05-14T03:33:05.038Z,5.30
2023-05-14T03:35:31.523Z,5.50
2023-05-14T03:37:59.616Z,5.63
2023-05-14T03:40:26.291Z,5.10
2023-05-14T03:42:53.312Z,5.25
2023-05-14T03:45:20.982Z,5.90
2023-05-14T03:47:47.710Z,5.90
2023-05-14T03:50:14.850Z,5.88
2023-05-14T03:52:41.894Z,5.95
2023-05-14T03:55:09.083Z,6.30
2023-05-14T03:57:36.629Z,6.93
2023-05-14T04:00:04.362Z,6.82
2023-05-14T04:02:31.005Z,5.90
2023-05-14T04:04:57.648Z,5.82
2023-05-14T04:07:24.074Z,6.40
2023-05-14T04:09:50.501Z,7.05
2023-05-14T04:12:18.272Z,6.55
2023-05-14T04:14:44.640Z,5.97
2023-05-14T04:17:11.114Z,5.95
2023-05-14T04:19:37.541Z,5.82
2023-05-14T04:22:04.161Z,6.22
2023-05-14T04:24:30.922Z,5.60
2023-05-14T04:26:57.324Z,5.75
2023-05-14T04:29:23.952Z,5.60
2023-05-14T04:31:50.580Z,6.10
2023-05-14T04:34:17.216Z,6.45
2023-05-14T04:36:43.602Z,5.65
2023-05-14T04:39:12.462Z,6.47
2023-05-14T04:41:40.471Z,6.90
2023-05-14T04:44:07.090Z,7.85
2023-05-14T04:46:34.062Z,6.97
2023-05-14T04:49:00.645Z,6.93
2023-05-14T04:51:27.800Z,5.65
2023-05-14T04:53:54.197Z,5.40
2023-05-14T04:56:21.351Z,5.10
2023-05-14T04:58:47.890Z,5.35
2023-05-14T05:01:15.495Z,4.25
2023-05-14T05:03:42.336Z,4.28
2023-05-14T05:06:09.034Z,4.68
2023-05-14T05:08:36.765Z,4.50
2023-05-14T05:11:03.256Z,3.92
2023-05-14T05:13:30.020Z,4.20
2023-05-14T05:15:56.475Z,3.92
2023-05-14T05:18:23.210Z,4.55
2023-05-14T05:20:49.629Z,4.28
2023-05-14T05:23:16.651Z,4.45
2023-05-14T05:25:43.046Z,4.45
2023-05-14T05:28:09.839Z,4.40
2023-05-14T05:30:36.718Z,4.82
2023-05-14T05:33:03.455Z,4.25
2023-05-14T05:35:30.397Z,4.60
2023-05-14T05:38:00.518Z,4.22
2023-05-14T05:40:27.873Z,4.60
2023-05-14T05:42:54.456Z,4.82
2023-05-14T05:45:20.950Z,5.65
2023-05-14T05:47:47.353Z,4.43
2023-05-14T05:50:14.990Z,4.20
2023-05-14T05:52:41.506Z,5.00
2023-05-14T05:55:08.341Z,4.78
2023-05-14T05:57:35.048Z,5.03
2023-05-14T06:00:12.525Z,5.32
2023-05-14T06:02:40.436Z,5.25
2023-05-14T06:05:08.482Z,5.53
2023-05-14T06:07:36.814Z,5.68
2023-05-14T06:10:03.661Z,5.43
2023-05-14T06:12:30.278Z,6.35
2023-05-14T06:14:58.293Z,5.57
2023-05-14T06:17:25.419Z,6.00
2023-05-14T06:19:52.724Z,5.78
2023-05-14T06:22:19.574Z,5.95
2023-05-14T06:24:46.308Z,7.13
2023-05-14T06:27:12.764Z,6.70
2023-05-14T06:29:39.666Z,6.35
2023-05-14T06:32:06.745Z,6.07
2023-05-14T06:34:33.256Z,6.13
2023-05-14T06:37:00.282Z,6.38
2023-05-14T06:39:26.788Z,6.13
2023-05-14T06:41:53.653Z,5.95
2023-05-14T06:44:20.130Z,6.72
2023-05-14T06:46:46.525Z,6.50
2023-05-14T06:49:13.416Z,7.00
2023-05-14T06:51:40.689Z,6.80
2023-05-14T06:54:07.426Z,6.63
2023-05-14T06:56:34.450Z,6.80
2023-05-14T06:59:00.944Z,7.05
2023-05-14T07:01:27.739Z,6.57
2023-05-14T07:03:54.203Z,7.10
2023-05-14T07:06:21.267Z,6.95
2023-05-14T07:08:47.860Z,6.65
2023-05-14T07:11:14.664Z,5.97
2023-05-14T07:13:42.056Z,6.10
2023-05-14T07:16:11.357Z,5.95
2023-05-14T07:18:37.947Z,5.68
2023-05-14T07:21:07.189Z,5.70
2023-05-14T07:23:36.356Z,6.07
2023-05-14T07:26:03.336Z,5.88
2023-05-14T07:28:29.916Z,5.72
2023-05-14T07:30:56.333Z,5.15
2023-05-14T07:33:23.631Z,5.15
2023-05-14T07:35:50.708Z,5.22
2023-05-14T07:38:17.745Z,5.55
2023-05-14T07:40:44.291Z,5.53
2023-05-14T07:43:11.026Z,5.20
2023-05-14T07:45:39.120Z,4.90
2023-05-14T07:48:06.276Z,5.20
2023-05-14T07:50:32.875Z,5.05
2023-05-14T07:52:59.705Z,5.57
2023-05-14T07:55:26.643Z,5.60
2023-05-14T07:57:53.231Z,5.28
2023-05-14T08:00:19.713Z,5.95
2023-05-14T08:02:46.978Z,6.00
2023-05-14T08:05:13.424Z,5.20
2023-05-14T08:07:40.143Z,5.05
2023-05-14T08:10:07.682Z,5.32
2023-05-14T08:12:34.253Z,5.35
2023-05-14T08:15:00.633Z,4.80
2023-05-14T08:17:27.710Z,4.90
2023-05-14T08:19:54.321Z,5.07
2023-05-14T08:22:22.017Z,5.00
2023-05-14T08:24:48.842Z,4.70
2023-05-14T08:27:16.536Z,5.13
2023-05-14T08:29:44.231Z,4.63
2023-05-14T08:32:22.156Z,5.18
2023-05-14T08:34:50.643Z,4.93
2023-05-14T08:37:17.157Z,4.88
2023-05-14T08:39:44.730Z,4.53
2023-05-14T08:42:12.912Z,4.10
2023-05-14T08:44:47.620Z,4.43
2023-05-14T08:47:16.107Z,4.18
2023-05-14T08:49:46.277Z,4.57
2023-05-14T08:52:13.214Z,4.10
2023-05-14T08:54:42.643Z,4.40
2023-05-14T08:57:09.999Z,4.50
2023-05-14T08:59:36.758Z,4.00
2023-05-14T09:02:06.208Z,4.50
2023-05-14T09:04:34.833Z,4.00
2023-05-14T09:07:04.364Z,3.92
2023-05-14T09:09:31.034Z,3.72
2023-05-14T09:11:57.741Z,3.80
2023-05-14T09:14:24.365Z,3.45
2023-05-14T09:16:51.655Z,3.78
2023-05-14T09:19:19.231Z,3.85
2023-05-14T09:21:48.275Z,3.85
2023-05-14T09:24:22.946Z,3.90
2023-05-14T09:26:54.005Z,4.30
2023-05-14T09:29:20.556Z,3.13
2023-05-14T09:31:51.853Z,3.17
2023-05-14T09:34:29.069Z,4.07
2023-05-14T09:37:01.224Z,3.58
2023-05-14T09:39:29.029Z,3.30
2023-05-14T09:41:56.185Z,3.30
2023-05-14T09:44:23.579Z,4.10
2023-05-14T09:46:51.121Z,3.05
2023-05-14T09:49:18.285Z,3.42
2023-05-14T09:51:44.789Z,3.60
2023-05-14T09:54:11.449Z,3.63
2023-05-14T09:56:39.408Z,3.33
2023-05-14T09:59:06.004Z,3.45
2023-05-14T10:01:35.368Z,3.63
2023-05-14T10:04:05.587Z,4.05
2023-05-14T10:06:37.274Z,3.58
2023-05-14T10:09:08.413Z,3.22
2023-05-14T10:11:37.883Z,3.10
2023-05-14T10:14:18.613Z,2.72
2023-05-14T10:16:50.841Z,2.67
2023-05-14T10:19:20.044Z,2.95
2023-05-14T10:21:56.008Z,2.42
2023-05-14T10:24:22.900Z,2.40
2023-05-14T10:26:49.563Z,2.40
2023-05-14T10:29:16.494Z,2.42
2023-05-14T10:31:54.158Z,2.78
2023-05-14T10:34:44.550Z,2.60
2023-05-14T10:37:16.022Z,2.40
2023-05-14T10:39:57.745Z,2.22
2023-05-14T10:42:28.194Z,2.40
2023-05-14T10:44:58.449Z,2.03
2023-05-14T10:47:27.023Z,2.40
2023-05-14T10:49:55.734Z,2.10
2023-05-14T10:52:24.838Z,2.53
2023-05-14T10:54:55.808Z,2.20
2023-05-14T10:57:24.399Z,2.35
2023-05-14T10:59:54.734Z,2.53
2023-05-14T11:02:26.492Z,2.42
2023-05-14T11:04:54.674Z,2.15
2023-05-14T11:07:28.729Z,2.53
2023-05-14T11:10:04.987Z,2.50
2023-05-14T11:12:32.409Z,2.97
2023-05-14T11:15:01.089Z,2.65
2023-05-14T11:17:28.594Z,2.40
2023-05-14T11:19:56.708Z,2.55
2023-05-14T11:22:23.968Z,2.50
2023-05-14T11:24:51.234Z,2.40
2023-05-14T11:27:19.031Z,2.10
2023-05-14T11:29:46.840Z,2.25
2023-05-14T11:32:14.735Z,2.58
2023-05-14T11:34:42.690Z,2.20
2023-05-14T11:37:10.185Z,2.17
2023-05-14T11:39:37.505Z,2.42
2023-05-14T11:42:12.239Z,2.53
2023-05-14T11:44:39.088Z,2.10
2023-05-14T11:47:06.365Z,2.10
2023-05-14T11:49:35.434Z,2.22
2023-05-14T11:52:04.381Z,2.33
2023-05-14T11:54:32.225Z,2.38
2023-05-14T11:57:00.228Z,2.00
2023-05-14T11:59:31.691Z,2.20
2023-05-14T12:02:02.591Z,2.10
2023-05-14T12:04:29.821Z,2.08
2023-05-14T12:06:58.915Z,2.00
2023-05-14T12:09:25.882Z,2.28
2023-05-14T12:11:53.144Z,1.92
2023-05-14T12:14:22.212Z,3.05
2023-05-14T12:16:49.905Z,3.10
2023-05-14T12:19:18.687Z,2.78
2023-05-14T12:21:48.043Z,3.17
2023-05-14T12:24:17.644Z,3.97
2023-05-14T12:26:49.334Z,3.35
2023-05-14T12:29:16.766Z,3.00
2023-05-14T12:31:48.029Z,3.30
2023-05-14T12:34:15.305Z,3.72
2023-05-14T12:36:42.533Z,3.63
2023-05-14T12:39:09.631Z,3.42
2023-05-14T12:41:36.960Z,3.47
2023-05-14T12:44:04.940Z,3.60
2023-05-14T12:46:32.367Z,3.50
2023-05-14T12:48:58.880Z,3.78
2023-05-14T12:51:28.377Z,3.80
2023-05-14T12:53:54.912Z,3.53
2023-05-14T12:56:27.913Z,3.58
2023-05-14T12:58:57.671Z,3.42
2023-05-14T13:01:25.045Z,3.80
2023-05-14T13:03:51.902Z,3.90
2023-05-14T13:06:18.397Z,3.42
2023-05-14T13:08:44.928Z,3.10
2023-05-14T13:11:11.610Z,3.47
2023-05-14T13:13:37.964Z,3.45
2023-05-14T13:16:05.086Z,3.15
2023-05-14T13:18:31.532Z,3.70
2023-05-14T13:20:58.382Z,3.80
2023-05-14T13:23:24.804Z,4.00
2023-05-14T13:25:51.261Z,3.42
2023-05-14T13:28:18.027Z,3.60
2023-05-14T13:31:04.462Z,3.35
2023-05-14T13:33:31.303Z,3.70
2023-05-14T13:35:57.716Z,3.28
2023-05-14T13:38:24.332Z,3.30
2023-05-14T13:40:50.794Z,3.17
2023-05-14T13:43:17.367Z,3.42
2023-05-14T13:45:43.767Z,3.67
2023-05-14T13:48:10.875Z,3.30
2023-05-14T13:50:37.780Z,2.95
2023-05-14T13:53:04.243Z,3.13
2023-05-14T13:55:30.786Z,4.22
2023-05-14T13:57:57.633Z,4.53
2023-05-14T14:00:24.224Z,3.78
2023-05-14T14:02:51.308Z,3.53
2023-05-14T14:05:17.930Z,3.95
2023-05-14T14:08:13.113Z,4.15
2023-05-14T14:10:49.565Z,3.95
2023-05-14T14:13:16.147Z,3.60
2023-05-14T14:15:43.645Z,3.90
2023-05-14T14:18:10.236Z,3.58
2023-05-14T14:20:37.177Z,3.00
2023-05-14T14:23:04.157Z,3.63
2023-05-14T14:25:30.567Z,3.10
2023-05-14T14:27:57.074Z,2.88
2023-05-14T14:30:23.666Z,2.85
2023-05-14T14:32:50.563Z,1.90
2023-05-14T14:35:19.108Z,2.33
2023-05-14T14:37:49.526Z,2.10
2023-05-14T14:40:17.140Z,2.35
2023-05-14T14:42:44.455Z,2.53
2023-05-14T14:45:11.885Z,2.80
2023-05-14T14:47:38.741Z,3.10
2023-05-14T14:50:06.410Z,2.97
2023-05-14T14:52:33.582Z,3.55
2023-05-14T14:54:59.961Z,3.83
2023-05-14T14:57:27.055Z,4.10
2023-05-14T14:59:53.554Z,3.60
2023-05-14T15:02:20.154Z,3.60
2023-05-14T15:04:47.005Z,3.75
2023-05-14T15:07:15.836Z,3.45
2023-05-14T15:09:42.301Z,3.22
2023-05-14T15:12:10.321Z,3.53
2023-05-14T15:14:37.196Z,3.63
2023-05-14T15:17:03.957Z,3.47
2023-05-14T15:19:32.877Z,3.70
2023-05-14T15:21:59.299Z,3.53
2023-05-14T15:24:26.554Z,3.65
2023-05-14T15:26:53.738Z,3.42
2023-05-14T15:29:20.459Z,4.57
2023-05-14T15:31:47.831Z,3.85
2023-05-14T15:34:14.475Z,3.35
2023-05-14T15:36:41.286Z,3.63
2023-05-14T15:39:10.530Z,3.38
2023-05-14T15:41:38.002Z,3.60
2023-05-14T15:44:04.622Z,3.50
2023-05-14T15:46:31.462Z,3.60
2023-05-14T15:48:58.547Z,3.22
2023-05-14T15:51:25.087Z,3.08
2023-05-14T15:53:54.016Z,2.97
2023-05-14T15:56:21.866Z,3.15
2023-05-14T15:58:48.902Z,2.53
2023-05-14T16:01:15.466Z,2.70
2023-05-14T16:03:42.267Z,2.30
2023-05-14T16:06:08.834Z,2.70
2023-05-14T16:08:35.424Z,2.70
2023-05-14T16:11:02.217Z,2.65
2023-05-14T16:13:28.713Z,2.65
2023-05-14T16:15:55.683Z,3.00
2023-05-14T16:18:22.580Z,2.53
2023-05-14T16:20:49.049Z,2.60
2023-05-14T16:23:15.882Z,2.20
2023-05-14T16:25:42.303Z,2.30
2023-05-14T16:28:08.876Z,2.42
2023-05-14T16:30:35.262Z,2.50
2023-05-14T16:33:01.731Z,2.13
2023-05-14T16:35:28.198Z,2.10
2023-05-14T16:37:54.693Z,2.13
2023-05-14T16:40:23.825Z,2.03
2023-05-14T16:42:51.677Z,2.22
2023-05-14T16:45:18.750Z,1.88
2023-05-14T16:47:45.750Z,1.80
2023-05-14T16:50:12.155Z,1.50
2023-05-14T16:52:38.916Z,1.67
2023-05-14T16:55:06.013Z,1.70
2023-05-14T16:57:32.776Z,1.30
2023-05-14T16:59:59.206Z,2.00
2023-05-14T17:02:26.133Z,1.42
2023-05-14T17:04:54.108Z,1.52
2023-05-14T17:07:22.123Z,1.58
2023-05-14T17:09:48.614Z,1.38
2023-05-14T17:12:15.307Z,1.50
2023-05-14T17:14:41.788Z,1.58
2023-05-14T17:17:08.289Z,1.30
2023-05-14T17:19:34.638Z,1.10
2023-05-14T17:22:01.503Z,1.60
2023-05-14T17:24:27.932Z,1.40
2023-05-14T17:26:54.803Z,1.33
2023-05-14T17:29:21.306Z,1.38
2023-05-14T17:31:48.514Z,1.63
2023-05-14T17:34:15.129Z,1.40
2023-05-14T17:36:41.816Z,1.52
2023-05-14T17:39:08.260Z,1.60
2023-05-14T17:41:35.237Z,1.38
2023-05-14T17:44:02.044Z,1.45
2023-05-14T17:46:28.757Z,1.30
2023-05-14T17:48:55.310Z,1.60
2023-05-14T17:51:22.217Z,1.80
2023-05-14T17:53:48.612Z,1.63
2023-05-14T17:56:17.152Z,1.50
2023-05-14T17:58:43.811Z,1.70
2023-05-14T18:01:10.286Z,1.58
2023-05-14T18:03:36.956Z,1.45
2023-05-14T18:06:03.906Z,1.50
2023-05-14T18:08:30.499Z,1.85
2023-05-14T18:10:58.007Z,1.48
2023-05-14T18:13:24.931Z,1.50
2023-05-14T18:15:54.333Z,1.42
2023-05-14T18:18:22.123Z,1.40
2023-05-14T18:20:49.450Z,1.23
2023-05-14T18:23:16.044Z,1.40
2023-05-14T18:25:42.792Z,1.30
2023-05-14T18:28:09.563Z,1.40
2023-05-14T18:30:36.527Z,1.48
2023-05-14T18:33:03.714Z,1.65
2023-05-14T18:35:30.772Z,1.70
2023-05-14T18:37:57.612Z,1.70
2023-05-14T18:40:24.289Z,2.05
2023-05-14T18:42:51.242Z,1.65
2023-05-14T18:45:17.783Z,1.70
2023-05-14T18:47:44.370Z,1.42
2023-05-14T18:50:11.066Z,1.60
2023-05-14T18:52:38.431Z,1.50
2023-05-14T18:55:05.370Z,1.50
2023-05-14T18:57:35.188Z,1.65
2023-05-14T19:00:02.014Z,1.65
2023-05-14T19:02:29.069Z,1.77
2023-05-14T19:04:55.630Z,1.77
2023-05-14T19:07:22.205Z,1.48
2023-05-14T19:09:48.849Z,1.23
2023-05-14T19:12:15.373Z,1.50
2023-05-14T19:14:42.064Z,1.58
2023-05-14T19:17:08.911Z,1.40
2023-05-14T19:19:35.443Z,1.55
2023-05-14T19:22:02.310Z,1.67
2023-05-14T19:24:28.930Z,1.70
2023-05-14T19:26:55.999Z,1.70
2023-05-14T19:29:22.401Z,1.67
2023-05-14T19:31:49.345Z,1.55
2023-05-14T19:34:15.905Z,2.00
2023-05-14T19:36:42.537Z,1.60
2023-05-14T19:39:08.969Z,1.45
2023-05-14T19:41:35.400Z,1.45
2023-05-14T19:44:01.918Z,1.88
2023-05-14T19:46:28.563Z,1.65
2023-05-14T19:48:54.997Z,1.70
2023-05-14T19:51:21.629Z,1.83
2023-05-14T19:53:48.037Z,1.90
2023-05-14T19:56:15.709Z,1.65
2023-05-14T19:58:42.111Z,1.83
2023-05-14T20:01:09.218Z,1.70
2023-05-14T20:03:35.753Z,1.73
2023-05-14T20:06:02.665Z,1.60
2023-05-14T20:08:29.379Z,1.80
2023-05-14T20:10:56.285Z,2.10
2023-05-14T20:13:25.057Z,2.10
2023-05-14T20:15:52.016Z,2.15
2023-05-14T20:18:18.459Z,2.05
2023-05-14T20:20:44.894Z,2.03
2023-05-14T20:23:11.590Z,1.85
2023-05-14T20:25:38.053Z,1.90
2023-05-14T20:28:04.497Z,2.38
2023-05-14T20:30:31.139Z,1.90
2023-05-14T20:32:57.842Z,2.35
2023-05-14T20:35:24.375Z,2.42
2023-05-14T20:37:51.369Z,2.10
2023-05-14T20:40:17.755Z,2.38
2023-05-14T20:42:44.618Z,2.00
2023-05-14T20:45:11.475Z,1.90
2023-05-14T20:47:37.886Z,2.20
2023-05-14T20:50:05.211Z,2.35
2023-05-14T20:52:31.661Z,2.13
2023-05-14T20:55:01.862Z,2.47
2023-05-14T20:57:28.892Z,2.33
2023-05-14T20:59:55.385Z,2.22
2023-05-14T21:02:21.919Z,2.22
2023-05-14T21:04:48.583Z,2.30
2023-05-14T21:07:15.300Z,1.95
2023-05-14T21:09:41.958Z,2.22
2023-05-14T21:12:09.024Z,2.42
2023-05-14T21:14:36.940Z,2.20
2023-05-14T21:17:03.781Z,2.15
2023-05-14T21:19:30.263Z,2.10
2023-05-14T21:21:57.281Z,2.42
2023-05-14T21:24:23.824Z,2.67
2023-05-14T21:26:52.228Z,2.28
2023-05-14T21:29:19.851Z,2.53
2023-05-14T21:31:46.317Z,2.35
2023-05-14T21:34:13.251Z,1.92
2023-05-14T21:36:39.753Z,2.70
2023-05-14T21:39:07.352Z,2.25
2023-05-14T21:41:33.852Z,2.33
2023-05-14T21:44:00.352Z,2.08
2023-05-14T21:46:28.798Z,2.33
2023-05-14T21:48:56.863Z,2.22
2023-05-14T21:51:24.104Z,2.15
2023-05-14T21:53:50.523Z,2.00
2023-05-14T21:56:17.373Z,2.17
2023-05-14T21:58:45.285Z,2.10
2023-05-14T22:01:12.189Z,2.30
2023-05-14T22:03:38.766Z,2.53
2023-05-14T22:06:05.667Z,2.50
2023-05-14T22:08:32.558Z,2.67
2023-05-14T22:10:58.998Z,2.40
2023-05-14T22:13:25.551Z,2.08
2023-05-14T22:16:01.443Z,2.60
2023-05-14T22:18:36.476Z,2.47
2023-05-14T22:21:03.510Z,2.90
2023-05-14T22:23:30.955Z,2.80
2023-05-14T22:25:58.057Z,2.42
2023-05-14T22:28:24.551Z,2.50
2023-05-14T22:30:52.157Z,2.67
2023-05-14T22:33:19.273Z,2.92
2023-05-14T22:35:46.102Z,2.55
2023-05-14T22:38:13.499Z,3.00
2023-05-14T22:40:39.927Z,2.70
2023-05-14T22:43:06.343Z,2.40
2023-05-14T22:45:34.217Z,2.65
2023-05-14T22:48:01.046Z,2.70
2023-05-14T22:50:27.723Z,2.90
2023-05-14T22:52:54.092Z,2.95
2023-05-14T22:55:21.024Z,2.63
2023-05-14T22:57:47.404Z,2.88
2023-05-14T23:00:14.934Z,3.40
2023-05-14T23:02:41.465Z,2.70
2023-05-14T23:05:08.430Z,2.70
2023-05-14T23:07:35.188Z,3.08
2023-05-14T23:10:01.892Z,3.00
2023-05-14T23:12:28.324Z,2.70
2023-05-14T23:14:54.699Z,2.80
2023-05-14T23:17:21.142Z,3.10
2023-05-14T23:19:49.947Z,2.78
2023-05-14T23:22:16.429Z,3.05
2023-05-14T23:24:42.832Z,2.97
2023-05-14T23:27:10.839Z,2.92
2023-05-14T23:29:37.316Z,2.97
2023-05-14T23:32:03.928Z,3.13
2023-05-14T23:34:30.318Z,3.03
2023-05-14T23:36:57.140Z,2.95
2023-05-14T23:39:23.722Z,3.08
2023-05-14T23:41:50.318Z,3.00
2023-05-14T23:44:17.164Z,3.00
2023-05-14T23:46:44.794Z,2.97
2023-05-14T23:49:11.310Z,3.17
2023-05-14T23:51:37.732Z,2.92
2023-05-14T23:54:04.965Z,2.47
2023-05-14T23:56:31.785Z,2.90
2023-05-14T23:58:58.350Z,2.97
